AirNav   Everest Fuels
 
 1040 users online  

KNFE Fentress Naval Auxiliary Field
Fentress, Virginia, USA

GOING TO FENTRESS?


FAA INFORMATION EFFECTIVE 16 JUNE 2022

Location

FAA Identifier: NFE
Lat/Long: 36-41-31.3310N 076-08-04.4305W
36-41.522183N 076-08.073842W
36.6920364,-76.1345640
(estimated)
Elevation: 16 ft. / 5 m (estimated)
Variation: 09W (1985)
Time zone: UTC -4 (UTC -5 during Standard Time)
Zip code: 23322

Airport Operations

Airport use: Private use. Permission required prior to landing
Activation date: 08/1943
Control tower: no
ARTCC: WASHINGTON CENTER
FSS: LEESBURG FLIGHT SERVICE STATION
Attendance: UNATNDD
Segmented circle: no
Lights: RY LGTS OPERATED BY CRASH CREW DURING SCHEDULED OPNS.

Airport Communications

OCEANA APPROACH: 123.9
OCEANA DEPARTURE: 123.9
WX AWOS-3 at CPK (9 nm W): 123.675 (757-204-4290)
WX ASOS at NTU (9 nm NE): PHONE DSN 433-3619 or 757-433-3619
WX ASOS at ORF (13 nm N): PHONE 757-460-9348
WX AWOS-3PT at PVG (16 nm W): 118.375 (757-465-2175)
WX AWOS-3 at ONX (18 nm S): 119.775 (252-453-8939)

Airport Services

Runway Information

Runway 5/23

Dimensions: 8004 x 175 ft. / 2440 x 53 m
Surface: asphalt
Weight bearing capacity: 
PCN 40 /R/C/W/T
Runway edge lights: low intensity
RUNWAY 5  RUNWAY 23
Latitude: 36-41.014033N36-42.030333N
Longitude: 076-08.595917W076-07.551767W
Elevation: 14.5 ft.14.2 ft.
Traffic pattern: leftleft
Runway heading: 049 magnetic, 040 true228 magnetic, 219 true
Touchdown point: yes, no lightsyes, no lights

Airport Ownership and Management from official FAA records

Ownership: U.S. Navy
Owner: US NAVY
OCEANOGRAPHIC OFC - CODE 3142
WASHINGTON, DC 20373

Additional Remarks

FOR CD CTC WASHINGTON ARTCC AT 703-771-3587.

Instrument Procedures

There are no published instrument procedures at KNFE.

Some nearby airports with instrument procedures:

KCPK - Chesapeake Regional Airport (9 nm W)
KNTU - Oceana Naval Air Station (Apollo Soucek Field) (9 nm NE)
KORF - Norfolk International Airport (13 nm N)
KPVG - Hampton Roads Executive Airport (16 nm W)
KNGU - Norfolk Naval Station (Chambers Field) (16 nm NW)
KNHU - Norfolk Naval Station Airport (18 nm NW)
KONX - Currituck County Regional Airport (18 nm S)
 
Loc | Ops | Rwys | IFR | FBO | Links
Com | Nav | Svcs | Stats | Notes
Area around KNFE (Fentress Naval Auxiliary Field)
 
Road maps at: MapQuest Bing Google
 
Aerial photo
WARNING: Photo may not be current or correct
Aerial photo of KNFE (Fentress Naval Auxiliary Field)
Do you have a better or more recent aerial photo of Fentress Naval Auxiliary Field that you would like to share? If so, please send us your photo.

 
Sectional chart

 
Airport distance calculator
Flying to Fentress Naval Auxiliary Field? Find the distance to fly.

From to KNFE

Sunrise and sunset
Times for 26-Jun-2022
 Local
(UTC-4)
 Zulu
(UTC)
Morning civil twilight05:1809:18
Sunrise05:4809:48
Sunset20:2600:26
Evening civil twilight20:5700:57

Current date and time
Zulu (UTC)  27-Jun-2022 00:23:19
Local (UTC-4)  26-Jun-2022 20:23:19
 
METAR
KNFE 262356Z AUTO 16008KT 10SM CLR 26/21 A3008 RMK AO2 SLP186 T02610206 10306 20261 56004
KCPK 
9nm W 
262355Z AUTO 15007KT 10SM 26/18 A3007 RMK AO2 T02580182 10302 20258
KNTU 
9nm NE 
262356Z 16011KT 10SM SCT300 26/21 A3007 RMK AO2 SLP184 T02560206 10289 20256 56005
KORF 
13nm N 
262351Z 16013KT 10SM CLR 26/19 A3006 RMK AO2 SLP179 T02610194 10300 20261 56004
KNGU 
15nm NW 
262359Z 15010G18KT 10SM SCT300 27/23 A3007 RMK AO2 SLP183 T02670228 10294 20267 56002 $
KONX 
18nm S 
262355Z AUTO 16008KT 10SM CLR 26/18 A3009 RMK AO2 T02550184 10347 20130
TAF
KNTU 
9nm NE 
2623/2723 16013G23KT 9999 SCT250 QNH3000INS BECMG 2702/2704 19010G20KT 9999 FEW080 SCT250 QNH2999INS BECMG 2712/2714 20008G18KT 9999 SCT035 BKN060 BKN180 QNH2994INS BECMG 2720/2722 19013KT 4800 SHRA BR VCTS SCT025CB BKN035 BKN180 QNH2992INS TEMPO 2720/2723 1600 TSRA BR BKN020CB OVC030 T21/2709Z T32/2720Z FN00253
KORF 
13nm N 
261720Z 2618/2718 04008KT P6SM SCT040 FM262200 15010KT P6SM FEW040 FM270300 18011KT P6SM SCT150 FM271200 21010KT P6SM BKN100
KNGU 
15nm NW 
2623/2723 14013G23KT 9999 SCT250 QNH2999INS BECMG 2703/2705 18010G20KT 9999 FEW080 SCT250 QNH2998INS BECMG 2712/2714 21008G18KT 9999 SCT035 BKN060 BKN180 QNH2996INS BECMG 2719/2721 19013KT 4800 SHRA BR VCTS SCT025CB BKN035 BKN180 QNH2993INS TEMPO 2719/2723 1600 TSRA BR BKN020CB OVC030 T21/2709Z T31/2719Z FN00253
NOTAMs
Click for the latest NOTAMs
NOTAMs are issued by the DoD/FAA and will open in a separate window not controlled by AirNav.

 

 
 

Would you like to see your business listed on this page?

 If your business provides an interesting product or service to pilots, flight crews, aircraft, or users of the Fentress Naval Auxiliary Field, you should consider listing it here.  To start the listing process, click on the button below
 
Add a business
 

Other Pages about Fentress Naval Auxiliary Field

Update a link
 
Copyright © AirNav, LLC. All rights reserved. Privacy Policy  Contact